Time;durP1;ratioP1;P1;durP2;ratioP2;P2;SDS_P1;SDS_P2;PMS_P1;PMS_P2;Temp;Humidity;BMP_temperature;BMP_pressure;BME280_temperature;BME280_humidity;BME280_pressure;Samples;Min_cycle;Max_cycle;Signal;HPM_P1;HPM_P2
2022/07/02 00:01:26;;;;;;;;;2.20;2.20;;;;;18.53;57.50;99597.84;5077456;28;45478;-57
2022/07/02 00:03:55;;;;;;;;;1.50;1.50;;;;;18.48;56.84;99592.81;5077614;27;45444;-58
2022/07/02 00:06:28;;;;;;;;;2.00;2.00;;;;;18.43;57.07;99595.75;5077388;28;45439;-58
2022/07/02 00:08:54;;;;;;;;;2.00;2.00;;;;;18.37;57.04;99604.19;5077483;27;46526;-57
2022/07/02 00:11:20;;;;;;;;;1.75;1.75;;;;;18.32;57.65;99602.75;5077788;28;45465;-57
2022/07/02 00:13:48;;;;;;;;;2.00;2.00;;;;;18.25;57.50;99599.66;5077514;27;45533;-58
2022/07/02 00:16:13;;;;;;;;;4.50;2.25;;;;;18.18;57.85;99603.66;5077385;27;45359;-58
2022/07/02 00:18:39;;;;;;;;;2.00;1.75;;;;;18.11;57.77;99595.16;5077485;27;45427;-58
2022/07/02 00:21:04;;;;;;;;;2.50;1.00;;;;;18.09;57.70;99607.78;5077471;27;45367;-57
2022/07/02 00:23:30;;;;;;;;;3.00;3.00;;;;;18.07;58.15;99606.16;5077014;27;45561;-57
2022/07/02 00:26:07;;;;;;;;;1.00;1.00;;;;;18.04;57.79;99609.00;5077439;27;45597;-57
2022/07/02 00:28:40;;;;;;;;;4.75;2.75;;;;;18.03;58.18;99608.16;5077139;27;46364;-58
2022/07/02 00:31:06;;;;;;;;;4.80;4.80;;;;;18.02;58.30;99606.44;5076311;27;45388;-57
2022/07/02 00:33:35;;;;;;;;;1.00;1.00;;;;;18.03;58.51;99609.97;5072224;27;45321;-58
2022/07/02 00:36:00;;;;;;;;;2.75;2.00;;;;;18.04;58.42;99614.34;5075689;28;45549;-58
2022/07/02 00:38:26;;;;;;;;;2.00;2.00;;;;;18.04;58.58;99614.34;5075355;27;45952;-58
2022/07/02 00:40:52;;;;;;;;;1.75;1.75;;;;;18.04;59.01;99609.88;5075567;27;45525;-58
2022/07/02 00:43:19;;;;;;;;;3.00;2.75;;;;;18.05;59.31;99616.91;5077018;27;45427;-58
2022/07/02 00:45:45;;;;;;;;;3.00;3.00;;;;;18.05;59.66;99618.72;5077063;27;45518;-58
2022/07/02 00:48:13;;;;;;;;;3.75;3.00;;;;;18.03;59.83;99613.47;5076525;28;45498;-58
2022/07/02 00:50:38;;;;;;;;;2.00;2.00;;;;;18.03;59.86;99618.81;5076829;27;45475;-58
2022/07/02 00:53:04;;;;;;;;;3.25;2.75;;;;;18.02;60.43;99609.09;5077181;27;45441;-57
2022/07/02 00:55:29;;;;;;;;;2.75;2.00;;;;;18.02;60.71;99613.56;5076845;27;45486;-57
2022/07/02 00:57:55;;;;;;;;;4.00;2.00;;;;;18.00;60.65;99615.47;5076699;27;46183;-57
2022/07/02 01:00:20;;;;;;;;;4.00;3.00;;;;;17.98;60.38;99620.91;5076822;27;45379;-57
2022/07/02 01:02:48;;;;;;;;;2.50;2.50;;;;;17.99;60.44;99616.44;5076265;27;45447;-57
2022/07/02 01:05:15;;;;;;;;;0.00;0.00;;;;;17.98;61.43;99618.25;5076672;27;45313;-57
2022/07/02 01:07:45;;;;;;;;;3.00;3.00;;;;;17.96;61.88;99616.63;5076464;27;46717;-57
2022/07/02 01:10:16;;;;;;;;;2.60;2.60;;;;;17.94;61.49;99615.84;5076751;27;45391;-57
2022/07/02 01:12:44;;;;;;;;;2.00;2.00;;;;;17.94;62.02;99613.19;5076808;27;45532;-57
2022/07/02 01:15:09;;;;;;;;;3.00;3.00;;;;;17.91;61.76;99608.94;5076500;27;45334;-57
2022/07/02 01:17:35;;;;;;;;;4.50;4.00;;;;;17.91;62.25;99618.75;5075966;27;46177;-57
2022/07/02 01:20:02;;;;;;;;;3.00;3.00;;;;;17.91;62.32;99616.06;5076134;27;45410;-57
2022/07/02 01:22:38;;;;;;;;;3.00;3.00;;;;;17.87;61.98;99617.19;5076597;28;45403;-57
2022/07/02 01:25:06;;;;;;;;;2.75;2.50;;;;;17.83;62.23;99618.34;5076386;27;45378;-57
2022/07/02 01:27:32;;;;;;;;;3.50;3.50;;;;;17.82;62.37;99621.97;5076121;27;47701;-59
2022/07/02 01:29:58;;;;;;;;;3.80;2.80;;;;;17.78;62.57;99629.28;5076362;27;45272;-59
2022/07/02 01:32:24;;;;;;;;;3.25;2.75;;;;;17.76;62.43;99621.38;5074925;27;45318;-59
2022/07/02 01:34:51;;;;;;;;;2.00;2.00;;;;;17.76;62.22;99625.88;5071714;28;45562;-59
2022/07/02 01:37:20;;;;;;;;;2.00;2.00;;;;;17.75;62.30;99621.50;5073943;28;46175;-59
2022/07/02 01:39:46;;;;;;;;;3.00;1.80;;;;;17.74;62.18;99625.13;5075116;28;45435;-59
2022/07/02 01:42:13;;;;;;;;;3.00;3.00;;;;;17.73;62.45;99629.59;5074059;27;45480;-57
2022/07/02 01:44:39;;;;;;;;;2.00;2.00;;;;;17.71;62.46;99628.81;5075549;28;45529;-57
2022/07/02 01:47:08;;;;;;;;;7.25;7.00;;;;;17.67;62.45;99627.28;5075951;27;45437;-59
2022/07/02 01:49:35;;;;;;;;;18.25;18.00;;;;;17.65;62.74;99621.19;5075668;28;45385;-59
2022/07/02 01:52:01;;;;;;;;;9.00;7.50;;;;;17.66;63.14;99632.72;5075810;27;45439;-59
2022/07/02 01:54:26;;;;;;;;;15.50;14.75;;;;;17.63;62.80;99632.84;5075697;27;45372;-59
2022/07/02 01:56:52;;;;;;;;;3.50;3.50;;;;;17.64;62.83;99632.78;5075140;27;45407;-59
2022/07/02 01:59:18;;;;;;;;;3.00;3.00;;;;;17.64;62.97;99639.94;5075675;27;45417;-59
2022/07/02 02:01:44;;;;;;;;;1.50;1.50;;;;;17.65;62.71;99637.19;5075456;27;45381;-59
2022/07/02 02:04:10;;;;;;;;;2.75;2.75;;;;;17.66;62.96;99635.38;5064269;28;45392;-58
2022/07/02 02:06:37;;;;;;;;;3.50;3.00;;;;;17.67;63.27;99639.75;5075456;27;46280;-57
2022/07/02 02:09:03;;;;;;;;;3.00;3.00;;;;;17.66;63.22;99630.91;5080632;27;45456;-57
2022/07/02 02:11:28;;;;;;;;;3.00;3.00;;;;;17.68;63.05;99636.16;5075282;28;45554;-57
2022/07/02 02:13:57;;;;;;;;;2.50;2.50;;;;;17.64;63.21;99631.94;5075100;28;45332;-57
2022/07/02 02:16:23;;;;;;;;;2.50;2.50;;;;;17.59;63.24;99634.88;5075136;27;46181;-57
2022/07/02 02:18:49;;;;;;;;;5.25;5.25;;;;;17.55;63.64;99624.47;5075638;27;45458;-57
2022/07/02 02:21:15;;;;;;;;;4.00;3.00;;;;;17.54;63.34;99630.75;5075658;27;45399;-57
2022/07/02 02:23:41;;;;;;;;;5.75;5.00;;;;;17.50;63.55;99627.41;5075084;27;45306;-58
2022/07/02 02:26:06;;;;;;;;;5.75;5.25;;;;;17.48;63.48;99628.44;5075148;27;45415;-58
2022/07/02 02:28:31;;;;;;;;;5.50;5.50;;;;;17.44;63.54;99635.78;5075038;27;45361;-58
2022/07/02 02:30:57;;;;;;;;;5.00;5.00;;;;;17.42;64.11;99635.91;5075122;27;45585;-58
2022/07/02 02:33:22;;;;;;;;;11.50;5.25;;;;;17.40;64.10;99644.94;5071533;27;45457;-58
2022/07/02 02:35:48;;;;;;;;;4.00;4.00;;;;;17.40;63.92;99631.59;5074124;28;45663;-58
2022/07/02 02:38:14;;;;;;;;;5.00;5.00;;;;;17.39;64.37;99630.75;5074426;28;45726;-58
2022/07/02 02:40:39;;;;;;;;;5.00;5.00;;;;;17.38;63.91;99633.50;5074538;27;45578;-58
2022/07/02 02:43:04;;;;;;;;;6.25;6.00;;;;;17.36;64.21;99635.38;5074445;27;45529;-58
2022/07/02 02:45:30;;;;;;;;;6.75;6.00;;;;;17.32;64.33;99636.50;5075475;27;45388;-58
2022/07/02 02:47:55;;;;;;;;;6.00;5.25;;;;;17.31;64.28;99640.97;5074858;27;45435;-58
2022/07/02 02:50:21;;;;;;;;;4.25;4.25;;;;;17.32;64.22;99636.50;5075561;27;45647;-58
2022/07/02 02:52:46;;;;;;;;;4.25;4.25;;;;;17.32;64.20;99636.50;5075039;27;45442;-58
2022/07/02 02:55:11;;;;;;;;;2.00;2.00;;;;;17.30;64.20;99639.25;5078239;27;45645;-58
2022/07/02 02:57:37;;;;;;;;;2.50;2.50;;;;;17.28;64.61;99633.16;5078815;27;45364;-58
2022/07/02 03:00:03;;;;;;;;;3.50;3.00;;;;;17.29;64.58;99631.34;5078815;27;45438;-58
2022/07/02 03:02:29;;;;;;;;;2.50;2.00;;;;;17.27;64.79;99630.59;5078051;28;45364;-58
2022/07/02 03:04:54;;;;;;;;;2.00;2.00;;;;;17.27;64.57;99638.59;5077894;27;45439;-58
2022/07/02 03:07:20;;;;;;;;;4.00;3.00;;;;;17.27;64.69;99638.59;5078235;27;45399;-58
2022/07/02 03:09:45;;;;;;;;;2.25;2.25;;;;;17.26;64.74;99643.06;5078419;27;45447;-58
2022/07/02 03:12:11;;;;;;;;;2.50;2.50;;;;;17.26;64.86;99648.38;5078655;28;45442;-58
2022/07/02 03:14:37;;;;;;;;;4.50;3.25;;;;;17.26;64.53;99642.22;5078465;27;45573;-58
2022/07/02 03:17:02;;;;;;;;;2.00;2.00;;;;;17.26;64.72;99639.56;5077699;27;45388;-58
2022/07/02 03:19:27;;;;;;;;;3.00;3.00;;;;;17.26;64.91;99640.38;5078391;28;45348;-58
2022/07/02 03:21:53;;;;;;;;;3.00;3.00;;;;;17.23;65.02;99637.94;5078121;27;45638;-58
2022/07/02 03:24:18;;;;;;;;;3.25;3.00;;;;;17.21;65.03;99631.81;5076552;28;47033;-58
2022/07/02 03:26:44;;;;;;;;;3.50;3.00;;;;;17.21;65.43;99636.31;5078071;27;45456;-58
2022/07/02 03:29:09;;;;;;;;;3.00;2.50;;;;;17.19;65.05;99636.38;5078103;27;45637;-58
2022/07/02 03:31:34;;;;;;;;;4.25;3.50;;;;;17.19;65.33;99638.19;5077783;27;45584;-57
2022/07/02 03:34:00;;;;;;;;;4.25;4.25;;;;;17.19;65.33;99633.72;5076659;27;45539;-58
2022/07/02 03:36:25;;;;;;;;;5.00;5.00;;;;;17.17;65.36;99637.41;5076667;28;45539;-58
2022/07/02 03:38:51;;;;;;;;;4.00;4.00;;;;;17.15;65.51;99634.84;5077176;27;45883;-58
2022/07/02 03:41:16;;;;;;;;;3.25;3.25;;;;;17.15;65.71;99632.19;5076689;27;45406;-58
2022/07/02 03:43:42;;;;;;;;;3.75;3.75;;;;;17.15;65.67;99632.19;5076738;27;45438;-58
2022/07/02 03:46:07;;;;;;;;;3.50;3.50;;;;;17.16;65.24;99633.03;5077713;27;45370;-58
2022/07/02 03:48:32;;;;;;;;;3.25;3.25;;;;;17.16;65.58;99638.38;5077971;27;45857;-58
2022/07/02 03:50:58;;;;;;;;;4.00;4.00;;;;;17.17;65.31;99634.75;5077977;27;45563;-58
2022/07/02 03:53:23;;;;;;;;;5.00;5.00;;;;;17.17;65.49;99640.09;5077977;27;45453;-58
2022/07/02 03:55:49;;;;;;;;;4.00;4.00;;;;;17.15;65.48;99636.66;5077594;27;45446;-58
2022/07/02 03:58:14;;;;;;;;;4.00;4.00;;;;;17.15;65.83;99639.31;5077684;27;45399;-58
2022/07/02 04:00:39;;;;;;;;;5.00;4.00;;;;;17.14;65.58;99641.13;5076863;27;45411;-58
2022/07/02 04:03:05;;;;;;;;;3.00;3.00;;;;;17.13;65.96;99639.41;5077227;27;45328;-58
2022/07/02 04:05:30;;;;;;;;;4.25;4.25;;;;;17.15;65.89;99639.31;5076416;27;45484;-58
2022/07/02 04:07:56;;;;;;;;;4.00;4.00;;;;;17.13;65.59;99631.41;5077283;27;45476;-58
2022/07/02 04:10:21;;;;;;;;;4.00;4.00;;;;;17.13;65.56;99631.41;5077062;27;45399;-58
2022/07/02 04:12:47;;;;;;;;;4.00;4.00;;;;;17.14;65.99;99637.59;5077318;27;46337;-57
2022/07/02 04:15:13;;;;;;;;;2.20;2.20;;;;;17.14;66.13;99637.59;5076246;28;45449;-57
2022/07/02 04:17:38;;;;;;;;;2.25;2.25;;;;;17.14;66.25;99642.94;5077120;27;45562;-57
2022/07/02 04:20:04;;;;;;;;;3.25;3.25;;;;;17.15;65.99;99641.97;5077429;28;45396;-58
2022/07/02 04:22:29;;;;;;;;;3.75;3.75;;;;;17.16;66.34;99641.88;5077014;27;47293;-58
2022/07/02 04:24:55;;;;;;;;;3.50;3.50;;;;;17.18;66.19;99637.34;5077110;27;45459;-58
2022/07/02 04:27:21;;;;;;;;;3.75;3.75;;;;;17.18;65.93;99633.81;5077689;27;45509;-58
2022/07/02 04:29:46;;;;;;;;;3.00;3.00;;;;;17.19;66.03;99630.19;5077015;27;45360;-57
2022/07/02 04:32:12;;;;;;;;;3.00;3.00;;;;;17.20;66.04;99623.91;5076700;27;45583;-58
2022/07/02 04:34:37;;;;;;;;;4.25;4.25;;;;;17.21;66.21;99630.97;5074825;27;45449;-58
2022/07/02 04:37:03;;;;;;;;;3.00;3.00;;;;;17.23;66.24;99624.59;5074424;27;45485;-52
2022/07/02 04:39:28;;;;;;;;;4.00;3.25;;;;;17.31;65.93;99627.66;5075552;27;45464;-49
2022/07/02 04:41:54;;;;;;;;;3.00;3.00;;;;;17.40;66.16;99631.59;5076237;27;45558;-49
2022/07/02 04:44:19;;;;;;;;;3.00;2.00;;;;;17.49;66.18;99625.69;5076035;27;45362;-52
2022/07/02 04:46:44;;;;;;;;;5.50;4.75;;;;;17.61;65.81;99635.59;5076165;27;45718;-50
2022/07/02 04:49:10;;;;;;;;;3.00;3.00;;;;;17.68;65.54;99633.47;5076616;27;45348;-50
2022/07/02 04:51:35;;;;;;;;;4.00;3.00;;;;;17.75;65.49;99635.69;5076666;27;46805;-52
2022/07/02 04:54:01;;;;;;;;;5.00;4.00;;;;;17.78;65.03;99630.13;5076469;27;45356;-48
2022/07/02 04:56:27;;;;;;;;;4.00;2.50;;;;;17.82;64.58;99633.47;5076547;27;45388;-50
2022/07/02 04:58:53;;;;;;;;;3.00;3.00;;;;;17.83;64.57;99643.19;5076077;27;45544;-52
2022/07/02 05:01:19;;;;;;;;;3.20;2.40;;;;;17.86;64.61;99651.03;5075916;27;45437;-53
2022/07/02 05:03:44;;;;;;;;;3.75;3.00;;;;;17.88;64.59;99648.25;5076407;27;45345;-50
2022/07/02 05:06:10;;;;;;;;;3.50;3.50;;;;;17.88;64.80;99640.25;5076376;27;45463;-51
2022/07/02 05:08:35;;;;;;;;;3.50;3.00;;;;;17.91;64.15;99648.94;5076360;27;45420;-52
2022/07/02 05:11:00;;;;;;;;;2.50;2.25;;;;;17.92;64.44;99641.78;5075774;27;46478;-52
2022/07/02 05:13:26;;;;;;;;;3.25;2.75;;;;;17.95;64.68;99645.09;5075149;28;45473;-47
2022/07/02 05:15:52;;;;;;;;;2.00;2.00;;;;;17.99;64.32;99635.97;5076416;27;45379;-49
2022/07/02 05:18:17;;;;;;;;;2.00;2.00;;;;;18.02;64.12;99635.78;5075929;28;45549;-51
2022/07/02 05:20:42;;;;;;;;;4.00;4.00;;;;;18.04;64.26;99633.03;5075716;27;46076;-51
2022/07/02 05:23:08;;;;;;;;;2.00;2.00;;;;;18.04;63.91;99625.00;5076118;27;45360;-49
2022/07/02 05:25:34;;;;;;;;;3.00;3.00;;;;;18.07;63.81;99631.03;5076008;28;45341;-51
2022/07/02 05:27:59;;;;;;;;;3.00;3.00;;;;;18.09;63.88;99631.78;5075723;28;45389;-52
2022/07/02 05:30:25;;;;;;;;;3.00;3.00;;;;;18.13;63.79;99630.63;5075643;27;45803;-52
2022/07/02 05:32:50;;;;;;;;;4.75;4.00;;;;;18.15;64.42;99627.84;5075528;27;45435;-48
2022/07/02 05:35:16;;;;;;;;;3.00;3.00;;;;;18.16;63.73;99621.56;5071902;28;45493;-50
2022/07/02 05:37:41;;;;;;;;;6.50;4.75;;;;;18.16;64.07;99626.03;5065738;28;45806;-50
2022/07/02 05:40:07;;;;;;;;;3.00;3.00;;;;;18.18;63.83;99630.34;5073810;28;45804;-52
2022/07/02 05:42:33;;;;;;;;;3.20;3.20;;;;;18.22;63.70;99621.19;5074273;27;45518;-53
2022/07/02 05:44:58;;;;;;;;;4.00;4.00;;;;;18.26;63.67;99622.72;5074804;27;45482;-51
2022/07/02 05:47:24;;;;;;;;;2.50;2.50;;;;;18.29;63.77;99625.16;5075080;27;45623;-51
2022/07/02 05:49:49;;;;;;;;;5.25;4.50;;;;;18.31;63.82;99631.28;5075403;27;46728;-48
2022/07/02 05:52:17;;;;;;;;;3.00;3.00;;;;;18.37;63.69;99640.72;5075634;28;45462;-52
2022/07/02 05:54:43;;;;;;;;;3.00;3.00;;;;;18.39;63.80;99639.66;5075721;27;45337;-51
2022/07/02 05:57:08;;;;;;;;;3.00;2.50;;;;;18.42;63.98;99639.47;5075446;28;45363;-49
2022/07/02 05:59:34;;;;;;;;;3.00;3.00;;;;;18.47;63.50;99632.00;5075079;27;46337;-50
2022/07/02 06:01:59;;;;;;;;;3.75;3.50;;;;;18.53;63.32;99635.25;5074762;27;45426;-52
2022/07/02 06:04:24;;;;;;;;;3.25;2.00;;;;;18.57;63.55;99626.09;5075365;27;45347;-50
2022/07/02 06:09:33;;;;;;;;;2.60;2.60;;;;;18.63;63.17;99631.03;5074891;28;45779;-49
2022/07/02 06:12:00;;;;;;;;;3.00;3.00;;;;;18.67;62.91;99619.22;5074927;27;45384;-50
2022/07/02 06:14:25;;;;;;;;;4.75;4.75;;;;;18.71;62.66;99616.25;5074801;27;45390;-51
2022/07/02 06:16:51;;;;;;;;;4.00;2.75;;;;;18.76;62.72;99622.16;5074548;27;45351;-49
2022/07/02 06:19:16;;;;;;;;;3.75;3.75;;;;;18.80;62.20;99620.13;5075253;27;46139;-49
2022/07/02 06:21:42;;;;;;;;;3.25;3.25;;;;;18.84;62.23;99626.97;5074987;27;45368;-49
2022/07/02 06:24:11;;;;;;;;;3.25;3.25;;;;;18.90;62.54;99623.91;5075347;28;45585;-48
2022/07/02 06:26:37;;;;;;;;;3.75;3.75;;;;;18.95;62.04;99620.91;5074940;27;45384;-49
2022/07/02 06:29:02;;;;;;;;;5.00;4.20;;;;;18.98;62.18;99620.72;5073598;27;45599;-50
2022/07/02 06:31:28;;;;;;;;;5.00;5.00;;;;;19.01;61.78;99623.19;5073097;28;45446;-51
2022/07/02 06:33:53;;;;;;;;;4.25;4.00;;;;;19.06;61.90;99623.75;5074635;27;45432;-46
2022/07/02 06:36:21;;;;;;;;;5.00;5.00;;;;;19.11;61.29;99621.59;5070628;27;45383;-51
2022/07/02 06:38:47;;;;;;;;;3.75;3.75;;;;;19.16;61.28;99619.47;5070862;27;47026;-51
2022/07/02 06:43:57;;;;;;;;;3.00;3.00;;;;;19.27;61.16;99627.63;5074017;28;45559;-51
2022/07/02 06:46:22;;;;;;;;;4.50;4.00;;;;;19.32;61.49;99620.16;5073860;27;45416;-51
2022/07/02 06:48:47;;;;;;;;;4.25;4.00;;;;;19.35;61.20;99625.31;5074474;27;46585;-53
2022/07/02 06:51:13;;;;;;;;;3.25;3.25;;;;;19.38;61.04;99622.44;5074496;27;45498;-51
2022/07/02 06:53:38;;;;;;;;;5.75;5.75;;;;;19.41;60.92;99616.88;5074437;27;45368;-51
2022/07/02 06:56:04;;;;;;;;;4.50;4.50;;;;;19.47;61.07;99613.75;5074312;27;45460;-51
2022/07/02 06:58:29;;;;;;;;;5.25;4.00;;;;;19.53;61.08;99620.53;5074630;27;45410;-51
2022/07/02 07:00:54;;;;;;;;;4.25;4.00;;;;;19.59;60.56;99614.78;5074245;27;45550;-50
2022/07/02 07:03:20;;;;;;;;;5.00;3.00;;;;;19.64;60.37;99611.78;5074437;27;45312;-50
2022/07/02 07:05:47;;;;;;;;;5.00;5.00;;;;;19.69;60.58;99612.31;5074271;27;45447;-49
2022/07/02 07:08:13;;;;;;;;;7.00;7.00;;;;;19.77;60.34;99610.81;5073774;27;47188;-52
2022/07/02 07:10:38;;;;;;;;;3.40;3.40;;;;;19.84;59.77;99616.59;5074529;27;45359;-51
2022/07/02 07:13:04;;;;;;;;;3.00;3.00;;;;;19.90;59.45;99612.63;5074230;27;45481;-51
2022/07/02 07:15:29;;;;;;;;;5.25;4.25;;;;;19.95;59.38;99613.16;5073768;27;45460;-52
2022/07/02 07:17:55;;;;;;;;;4.25;4.25;;;;;19.99;59.33;99615.50;5073402;27;45593;-50
2022/07/02 07:20:26;;;;;;;;;2.00;2.00;;;;;20.06;58.76;99613.25;5072454;28;45364;-51
2022/07/02 07:22:53;;;;;;;;;4.00;3.40;;;;;20.10;58.79;99614.75;5074297;27;45418;-53
2022/07/02 07:25:19;;;;;;;;;4.00;4.00;;;;;20.16;58.40;99611.63;5074232;27;46476;-52
2022/07/02 07:27:45;;;;;;;;;4.20;4.20;;;;;20.25;58.08;99610.13;5073961;27;45687;-52
2022/07/02 07:30:11;;;;;;;;;5.00;4.00;;;;;20.31;57.37;99607.84;5073960;27;45445;-51
2022/07/02 07:32:37;;;;;;;;;5.20;5.20;;;;;20.37;57.41;99603.91;5073629;27;45258;-49
2022/07/02 07:35:04;;;;;;;;;5.00;4.00;;;;;20.43;56.95;99598.13;5073277;27;45510;-52
2022/07/02 07:37:29;;;;;;;;;4.40;3.00;;;;;20.49;56.95;99594.97;5068163;28;46304;-48
2022/07/02 07:39:55;;;;;;;;;2.75;2.75;;;;;20.56;57.36;99598.94;5072915;28;45514;-49
2022/07/02 07:42:22;;;;;;;;;4.75;4.75;;;;;20.61;57.13;99586.03;5076262;27;45471;-50
2022/07/02 07:44:49;;;;;;;;;3.00;3.00;;;;;20.66;56.35;99586.53;5075960;27;45530;-50
2022/07/02 07:47:14;;;;;;;;;2.40;2.40;;;;;20.73;57.48;99590.50;5075678;27;45567;-52
2022/07/02 07:49:39;;;;;;;;;5.00;5.00;;;;;20.75;56.87;99588.56;5076871;28;45439;-51
2022/07/02 07:52:05;;;;;;;;;5.00;5.00;;;;;20.76;57.16;99576.88;5077330;27;45402;-50
2022/07/02 07:54:31;;;;;;;;;4.00;4.00;;;;;20.78;56.84;99577.59;5076994;27;45258;-52
2022/07/02 07:56:56;;;;;;;;;5.00;5.00;;;;;20.82;57.08;99579.06;5077162;27;45366;-51
2022/07/02 07:59:22;;;;;;;;;2.00;2.00;;;;;20.89;56.82;99587.53;5077001;27;45463;-51
2022/07/02 08:01:47;;;;;;;;;4.75;3.50;;;;;20.96;56.63;99580.72;5076086;27;45439;-50
2022/07/02 08:04:12;;;;;;;;;3.25;3.25;;;;;21.04;56.07;99585.50;5066244;27;45451;-49
2022/07/02 08:06:38;;;;;;;;;3.25;2.75;;;;;21.11;56.16;99584.94;5077055;27;46287;-52
2022/07/02 08:09:03;;;;;;;;;4.25;3.75;;;;;21.18;55.83;99583.47;5073222;27;45442;-52
2022/07/02 08:11:29;;;;;;;;;3.00;3.00;;;;;21.24;55.14;99582.19;5070577;27;45534;-49
2022/07/02 08:13:54;;;;;;;;;5.00;3.75;;;;;21.31;55.32;99582.56;5073406;28;45475;-48
2022/07/02 08:16:20;;;;;;;;;3.25;3.25;;;;;21.38;55.44;99573.09;5075422;27;46380;-50
2022/07/02 08:18:45;;;;;;;;;4.50;3.25;;;;;21.46;55.28;99571.50;5073678;27;45447;-49
2022/07/02 08:21:10;;;;;;;;;3.25;3.00;;;;;21.55;55.69;99575.31;5083283;27;45544;-51
2022/07/02 08:23:36;;;;;;;;;2.00;2.00;;;;;21.62;55.47;99575.72;5074389;27;45473;-50
2022/07/02 08:26:01;;;;;;;;;2.00;2.00;;;;;21.67;54.99;99573.50;5075474;27;45499;-48
2022/07/02 08:28:27;;;;;;;;;3.50;3.50;;;;;21.71;54.56;99559.72;5075842;27;45483;-48
2022/07/02 08:30:52;;;;;;;;;4.00;3.00;;;;;21.76;54.39;99559.38;5072680;27;45803;-50
2022/07/02 08:33:18;;;;;;;;;4.00;3.00;;;;;21.82;54.26;99561.53;5075560;27;45543;-52
2022/07/02 08:35:44;;;;;;;;;2.00;2.00;;;;;21.86;54.15;99554.97;5075220;27;47235;-52
2022/07/02 08:38:10;;;;;;;;;3.00;2.00;;;;;21.90;53.82;99556.44;5075117;27;45428;-52
2022/07/02 08:40:35;;;;;;;;;4.00;2.60;;;;;21.95;53.59;99541.66;5066488;27;45423;-51
2022/07/02 08:43:03;;;;;;;;;5.00;3.75;;;;;22.02;53.81;99543.88;5075308;27;45151;-52
2022/07/02 08:45:32;;;;;;;;;7.20;4.00;;;;;22.07;54.28;99539.00;5073015;28;45834;-49
2022/07/02 08:48:03;;;;;;;;;2.00;2.00;;;;;22.14;54.62;99530.31;5075953;28;45427;-50
2022/07/02 08:50:30;;;;;;;;;3.60;3.20;;;;;22.18;54.40;99526.41;5075508;27;45550;-50
2022/07/02 08:52:55;;;;;;;;;4.75;3.00;;;;;22.26;54.13;99523.97;5073063;28;45438;-51
2022/07/02 08:55:22;;;;;;;;;2.25;2.25;;;;;22.33;53.72;99521.59;5074491;27;46276;-48
2022/07/02 08:57:50;;;;;;;;;5.60;4.00;;;;;22.40;53.81;99528.19;5074802;27;45456;-52
2022/07/02 09:00:17;;;;;;;;;4.00;3.80;;;;;22.50;53.68;99520.22;5075094;27;45397;-51
2022/07/02 09:02:44;;;;;;;;;4.00;4.00;;;;;22.56;53.95;99514.34;5074484;27;45525;-51
2022/07/02 09:05:11;;;;;;;;;4.80;3.00;;;;;22.60;53.90;99508.59;5075578;27;45466;-52
2022/07/02 09:07:40;;;;;;;;;3.80;3.80;;;;;22.67;53.35;99503.53;5075261;28;45332;-52
2022/07/02 09:10:07;;;;;;;;;3.20;3.00;;;;;22.74;52.48;99509.25;5074902;27;45436;-50
2022/07/02 09:12:33;;;;;;;;;5.00;3.60;;;;;22.81;52.97;99505.94;5075215;27;45581;-49
2022/07/02 09:14:58;;;;;;;;;4.00;4.00;;;;;22.85;52.40;99504.72;5075371;27;45514;-50
2022/07/02 09:17:24;;;;;;;;;5.25;4.00;;;;;22.90;52.45;99502.50;5074905;27;45456;-48
2022/07/02 09:19:49;;;;;;;;;4.50;4.50;;;;;22.97;52.10;99502.81;5075458;27;45372;-51
2022/07/02 09:22:15;;;;;;;;;4.50;4.50;;;;;23.05;51.67;99488.72;5074442;28;45487;-55
2022/07/02 09:24:43;;;;;;;;;9.75;8.25;;;;;23.14;51.95;99490.59;5074278;27;47056;-51
2022/07/02 09:27:13;;;;;;;;;5.60;4.40;;;;;23.23;51.96;99497.91;5074268;27;45419;-53
2022/07/02 09:29:52;;;;;;;;;3.00;3.00;;;;;23.28;52.10;99493.00;5075166;27;45463;-53
2022/07/02 09:32:19;;;;;;;;;4.80;4.80;;;;;23.35;51.88;99490.59;5071522;28;45377;-57
2022/07/02 09:34:52;;;;;;;;;3.80;2.80;;;;;23.40;51.63;99486.53;5073940;28;46579;-55
2022/07/02 09:37:21;;;;;;;;;2.20;2.20;;;;;23.42;51.76;99484.56;5074013;27;45433;-56
2022/07/02 09:39:48;;;;;;;;;3.00;3.00;;;;;23.45;51.40;99480.75;5072988;27;45494;-56
2022/07/02 09:42:26;;;;;;;;;3.00;3.00;;;;;23.48;51.86;99477.78;5074557;27;45483;-56
2022/07/02 09:44:52;;;;;;;;;4.40;3.80;;;;;23.51;51.56;99477.50;5074604;27;46350;-57
2022/07/02 09:47:29;;;;;;;;;3.60;3.60;;;;;23.58;51.83;99474.19;5074234;28;45316;-56
2022/07/02 09:49:54;;;;;;;;;2.00;2.00;;;;;23.65;52.07;99469.09;5062230;28;45348;-57
2022/07/02 09:52:19;;;;;;;;;5.00;4.75;;;;;23.71;51.47;99471.25;5074743;27;45423;-57
2022/07/02 09:54:46;;;;;;;;;4.00;4.00;;;;;23.81;51.57;99471.28;5069677;27;45394;-56
2022/07/02 09:57:12;;;;;;;;;4.00;3.00;;;;;23.89;51.21;99468.75;5075017;27;45353;-55
2022/07/02 09:59:39;;;;;;;;;2.80;2.80;;;;;23.97;51.38;99468.91;5074829;27;45546;-56
2022/07/02 10:02:05;;;;;;;;;4.00;4.00;;;;;24.03;50.96;99460.28;5074007;28;45458;-56
2022/07/02 10:04:33;;;;;;;;;4.00;4.00;;;;;24.12;50.94;99472.09;5060214;28;47169;-56
2022/07/02 10:07:00;;;;;;;;;4.40;4.40;;;;;24.21;50.70;99471.25;5074624;28;45300;-56
2022/07/02 10:09:26;;;;;;;;;3.20;3.20;;;;;24.30;50.28;99470.44;5071616;27;45410;-56
2022/07/02 10:11:53;;;;;;;;;2.00;2.00;;;;;24.38;50.14;99473.28;5074426;27;45442;-56
2022/07/02 10:14:21;;;;;;;;;3.80;3.00;;;;;24.42;49.87;99469.31;5074790;28;46604;-55
2022/07/02 10:16:50;;;;;;;;;4.80;4.80;;;;;24.46;49.78;99462.66;5072013;27;45406;-56
2022/07/02 10:19:17;;;;;;;;;6.60;5.00;;;;;24.49;49.38;99467.75;5074168;27;45352;-56
2022/07/02 10:21:43;;;;;;;;;3.80;3.80;;;;;24.53;49.23;99466.50;5074920;27;45465;-55
2022/07/02 10:24:10;;;;;;;;;4.40;4.40;;;;;24.58;48.92;99474.16;5067531;27;45515;-56
2022/07/02 10:26:37;;;;;;;;;3.80;1.80;;;;;24.61;48.68;99466.66;5069054;28;45418;-56
2022/07/02 10:29:03;;;;;;;;;2.40;2.40;;;;;24.62;47.90;99468.34;5074541;27;45475;-57
2022/07/02 10:31:36;;;;;;;;;4.40;3.40;;;;;24.57;48.38;99467.91;5070959;27;45504;-56
2022/07/02 10:34:36;;;;;;;;;3.00;3.00;;;;;24.59;48.70;99459.69;5074744;27;46202;-56
2022/07/02 10:37:02;;;;;;;;;3.80;3.80;;;;;24.61;48.06;99457.69;5074652;27;45348;-56
2022/07/02 10:39:41;;;;;;;;;3.20;3.00;;;;;24.61;48.33;99458.56;5064967;27;45471;-56
2022/07/02 10:42:07;;;;;;;;;3.00;1.20;;;;;24.59;47.58;99460.53;5074676;28;45364;-56
2022/07/02 10:44:42;;;;;;;;;2.80;2.80;;;;;24.62;46.83;99459.41;5074296;27;46972;-57
2022/07/02 10:47:25;;;;;;;;;4.00;3.20;;;;;24.62;46.78;99460.25;5073882;27;45455;-56
2022/07/02 10:50:01;;;;;;;;;3.80;3.80;;;;;24.66;46.26;99461.66;5074081;28;45461;-56
2022/07/02 10:52:52;;;;;;;;;4.20;4.20;;;;;24.66;46.06;99456.25;5074214;27;45410;-56
2022/07/02 10:55:28;;;;;;;;;5.00;5.00;;;;;24.67;46.63;99451.72;5068140;28;45391;-56
2022/07/02 10:58:05;;;;;;;;;3.60;3.60;;;;;24.71;46.56;99450.44;5073990;27;45479;-56
2022/07/02 11:00:37;;;;;;;;;3.40;3.40;;;;;24.76;46.16;99444.63;5073789;27;45487;-57
2022/07/02 11:03:16;;;;;;;;;4.00;4.00;;;;;24.76;46.46;99441.94;5056278;28;45538;-57
2022/07/02 11:05:56;;;;;;;;;2.00;2.00;;;;;24.81;46.57;99436.94;5074453;28;46436;-57
2022/07/02 11:08:40;;;;;;;;;2.40;2.40;;;;;24.87;46.29;99447.16;5073440;27;45254;-57
2022/07/02 11:11:05;;;;;;;;;3.20;3.20;;;;;24.92;47.22;99431.41;5061546;28;45318;-57
2022/07/02 11:13:40;;;;;;;;;3.75;3.00;;;;;25.01;47.32;99419.75;5074510;27;45269;-56
2022/07/02 11:16:24;;;;;;;;;4.20;4.20;;;;;25.17;47.27;99440.75;5076793;28;45613;-56
2022/07/02 11:18:50;;;;;;;;;4.00;3.40;;;;;25.21;46.27;99416.03;5077819;28;45376;-57
2022/07/02 11:21:17;;;;;;;;;5.00;5.00;;;;;25.22;46.68;99425.81;5078330;27;45327;-57
2022/07/02 11:23:44;;;;;;;;;2.80;2.80;;;;;25.22;46.82;99428.50;5074385;27;45284;-57
2022/07/02 11:26:14;;;;;;;;;4.00;4.00;;;;;25.24;46.93;99422.97;5068291;28;47479;-57
2022/07/02 11:28:39;;;;;;;;;3.80;3.80;;;;;25.30;46.35;99425.91;5076936;27;45536;-57
2022/07/02 11:31:06;;;;;;;;;2.00;1.75;;;;;25.34;46.63;99424.63;5076164;27;45433;-57
2022/07/02 11:33:32;;;;;;;;;3.25;3.25;;;;;25.32;47.06;99413.13;5077342;28;45635;-57
2022/07/02 11:35:58;;;;;;;;;3.40;3.40;;;;;25.35;47.40;99418.25;5077349;28;46558;-58
2022/07/02 11:38:23;;;;;;;;;4.25;4.25;;;;;25.45;47.58;99404.72;5076600;27;45426;-57